sensor_id;sensor_type;location;lat;lon;timestamp;temperature;humidity
15789;DHT22;59075;50.670;6.474;2022-10-15T05:01:27;19.30;99.90
15789;DHT22;59075;50.670;6.474;2022-10-15T05:03:53;19.30;99.90
15789;DHT22;59075;50.670;6.474;2022-10-15T05:06:21;19.30;99.90
15789;DHT22;59075;50.670;6.474;2022-10-15T05:08:48;19.40;99.90
15789;DHT22;59075;50.670;6.474;2022-10-15T05:11:16;19.30;99.90
15789;DHT22;59075;50.670;6.474;2022-10-15T05:13:43;19.20;99.90
15789;DHT22;59075;50.670;6.474;2022-10-15T05:16:12;19.30;99.90
15789;DHT22;59075;50.670;6.474;2022-10-15T05:18:41;19.30;99.90
15789;DHT22;59075;50.670;6.474;2022-10-15T05:21:08;19.30;99.90
15789;DHT22;59075;50.670;6.474;2022-10-15T05:23:36;19.20;99.90
15789;DHT22;59075;50.670;6.474;2022-10-15T05:26:05;19.20;99.90
15789;DHT22;59075;50.670;6.474;2022-10-15T05:28:32;19.30;99.90
15789;DHT22;59075;50.670;6.474;2022-10-15T05:31:03;19.20;99.90
15789;DHT22;59075;50.670;6.474;2022-10-15T05:33:30;19.30;99.90
15789;DHT22;59075;50.670;6.474;2022-10-15T05:36:07;19.20;99.90
15789;DHT22;59075;50.670;6.474;2022-10-15T05:38:33;19.10;99.90
15789;DHT22;59075;50.670;6.474;2022-10-15T05:41:00;19.20;99.90
15789;DHT22;59075;50.670;6.474;2022-10-15T05:43:27;19.20;99.90
15789;DHT22;59075;50.670;6.474;2022-10-15T05:45:53;19.30;99.90
15789;DHT22;59075;50.670;6.474;2022-10-15T05:48:20;19.20;99.90
15789;DHT22;59075;50.670;6.474;2022-10-15T05:50:47;19.20;99.90
15789;DHT22;59075;50.670;6.474;2022-10-15T05:53:15;19.20;99.90
15789;DHT22;59075;50.670;6.474;2022-10-15T05:55:41;19.10;99.90
15789;DHT22;59075;50.670;6.474;2022-10-15T05:58:08;19.20;99.90
15789;DHT22;59075;50.670;6.474;2022-10-15T06:00:35;19.20;99.90
15789;DHT22;59075;50.670;6.474;2022-10-15T06:03:03;19.20;99.90
15789;DHT22;59075;50.670;6.474;2022-10-15T06:05:30;19.30;99.90
15789;DHT22;59075;50.670;6.474;2022-10-15T06:07:57;19.20;99.90
15789;DHT22;59075;50.670;6.474;2022-10-15T06:10:25;19.20;99.90
15789;DHT22;59075;50.670;6.474;2022-10-15T06:12:53;19.20;99.90
15789;DHT22;59075;50.670;6.474;2022-10-15T06:15:20;19.30;99.90
15789;DHT22;59075;50.670;6.474;2022-10-15T06:17:46;19.30;99.90
15789;DHT22;59075;50.670;6.474;2022-10-15T06:20:13;19.20;99.90
15789;DHT22;59075;50.670;6.474;2022-10-15T06:22:40;19.20;99.90
15789;DHT22;59075;50.670;6.474;2022-10-15T06:25:08;19.30;99.90
15789;DHT22;59075;50.670;6.474;2022-10-15T06:27:36;19.20;99.90
15789;DHT22;59075;50.670;6.474;2022-10-15T06:30:04;19.20;99.90
15789;DHT22;59075;50.670;6.474;2022-10-15T06:32:30;19.20;99.90
15789;DHT22;59075;50.670;6.474;2022-10-15T06:34:57;19.20;99.90
15789;DHT22;59075;50.670;6.474;2022-10-15T06:37:24;19.20;99.90
15789;DHT22;59075;50.670;6.474;2022-10-15T06:39:50;19.20;99.90
15789;DHT22;59075;50.670;6.474;2022-10-15T06:42:17;19.20;99.90
15789;DHT22;59075;50.670;6.474;2022-10-15T06:44:45;19.20;99.90
15789;DHT22;59075;50.670;6.474;2022-10-15T06:47:12;19.20;99.90
15789;DHT22;59075;50.670;6.474;2022-10-15T06:49:38;19.20;99.90
15789;DHT22;59075;50.670;6.474;2022-10-15T06:52:05;19.20;99.90
15789;DHT22;59075;50.670;6.474;2022-10-15T06:54:32;19.20;99.90
15789;DHT22;59075;50.670;6.474;2022-10-15T06:56:58;19.20;99.90
15789;DHT22;59075;50.670;6.474;2022-10-15T06:59:25;19.20;99.90
15789;DHT22;59075;50.670;6.474;2022-10-15T07:01:53;19.10;99.90
15789;DHT22;59075;50.670;6.474;2022-10-15T07:04:21;19.20;99.90
15789;DHT22;59075;50.670;6.474;2022-10-15T07:06:48;19.20;99.90
15789;DHT22;59075;50.670;6.474;2022-10-15T07:09:15;19.20;99.90
15789;DHT22;59075;50.670;6.474;2022-10-15T07:11:41;19.30;99.90
15789;DHT22;59075;50.670;6.474;2022-10-15T07:14:08;19.20;99.90
15789;DHT22;59075;50.670;6.474;2022-10-15T07:16:35;19.30;99.90
15789;DHT22;59075;50.670;6.474;2022-10-15T07:19:04;19.20;99.90
15789;DHT22;59075;50.670;6.474;2022-10-15T07:21:31;19.20;99.90
15789;DHT22;59075;50.670;6.474;2022-10-15T07:23:58;19.30;99.90
15789;DHT22;59075;50.670;6.474;2022-10-15T07:26:25;19.30;99.90
15789;DHT22;59075;50.670;6.474;2022-10-15T07:28:53;19.40;99.90
15789;DHT22;59075;50.670;6.474;2022-10-15T07:31:20;19.30;99.90
15789;DHT22;59075;50.670;6.474;2022-10-15T07:33:46;19.30;99.90
15789;DHT22;59075;50.670;6.474;2022-10-15T07:36:15;19.30;99.90
15789;DHT22;59075;50.670;6.474;2022-10-15T07:38:42;19.30;99.90
15789;DHT22;59075;50.670;6.474;2022-10-15T07:41:09;19.30;99.90
15789;DHT22;59075;50.670;6.474;2022-10-15T07:43:36;19.30;99.90
15789;DHT22;59075;50.670;6.474;2022-10-15T07:46:03;19.30;99.90
15789;DHT22;59075;50.670;6.474;2022-10-15T07:48:30;19.30;99.90
15789;DHT22;59075;50.670;6.474;2022-10-15T07:50:59;19.30;99.90
15789;DHT22;59075;50.670;6.474;2022-10-15T07:53:27;19.50;99.90
15789;DHT22;59075;50.670;6.474;2022-10-15T07:55:57;19.30;99.90
15789;DHT22;59075;50.670;6.474;2022-10-15T07:58:24;19.30;99.90
15789;DHT22;59075;50.670;6.474;2022-10-15T08:00:51;19.30;99.90
15789;DHT22;59075;50.670;6.474;2022-10-15T08:03:17;19.30;99.90
15789;DHT22;59075;50.670;6.474;2022-10-15T08:05:44;19.30;99.90
15789;DHT22;59075;50.670;6.474;2022-10-15T08:08:10;19.30;99.90
15789;DHT22;59075;50.670;6.474;2022-10-15T08:10:38;19.30;99.90
15789;DHT22;59075;50.670;6.474;2022-10-15T08:13:05;19.30;99.90
15789;DHT22;59075;50.670;6.474;2022-10-15T08:15:32;19.20;99.90
15789;DHT22;59075;50.670;6.474;2022-10-15T08:17:59;19.30;99.90
15789;DHT22;59075;50.670;6.474;2022-10-15T08:20:25;19.30;99.90
15789;DHT22;59075;50.670;6.474;2022-10-15T08:22:52;19.30;99.90
15789;DHT22;59075;50.670;6.474;2022-10-15T08:25:19;19.30;99.90
15789;DHT22;59075;50.670;6.474;2022-10-15T08:27:47;19.30;99.90
15789;DHT22;59075;50.670;6.474;2022-10-15T08:30:13;19.40;99.90
15789;DHT22;59075;50.670;6.474;2022-10-15T08:32:40;19.30;99.90
15789;DHT22;59075;50.670;6.474;2022-10-15T08:35:07;19.40;99.90
15789;DHT22;59075;50.670;6.474;2022-10-15T08:40:01;19.40;99.90
15789;DHT22;59075;50.670;6.474;2022-10-15T08:42:31;19.40;99.90
15789;DHT22;59075;50.670;6.474;2022-10-15T08:45:02;19.40;99.90
15789;DHT22;59075;50.670;6.474;2022-10-15T08:47:33;19.40;99.90
15789;DHT22;59075;50.670;6.474;2022-10-15T08:50:05;19.40;99.90
15789;DHT22;59075;50.670;6.474;2022-10-15T08:52:41;19.50;99.90
15789;DHT22;59075;50.670;6.474;2022-10-15T08:55:10;19.50;99.90
15789;DHT22;59075;50.670;6.474;2022-10-15T08:57:41;19.50;99.90
15789;DHT22;59075;50.670;6.474;2022-10-15T09:00:16;19.50;99.90
15789;DHT22;59075;50.670;6.474;2022-10-15T09:02:49;19.50;99.90
15789;DHT22;59075;50.670;6.474;2022-10-15T09:05:31;19.50;99.90
15789;DHT22;59075;50.670;6.474;2022-10-15T09:08:06;19.50;99.90
15789;DHT22;59075;50.670;6.474;2022-10-15T09:10:42;19.60;99.90
15789;DHT22;59075;50.670;6.474;2022-10-15T09:13:13;19.60;99.90
15789;DHT22;59075;50.670;6.474;2022-10-15T09:15:48;19.70;99.90
15789;DHT22;59075;50.670;6.474;2022-10-15T09:18:21;19.70;99.90
15789;DHT22;59075;50.670;6.474;2022-10-15T09:20:49;19.70;99.90
15789;DHT22;59075;50.670;6.474;2022-10-15T09:23:18;19.70;99.90
15789;DHT22;59075;50.670;6.474;2022-10-15T09:25:50;19.70;99.90
15789;DHT22;59075;50.670;6.474;2022-10-15T09:28:19;19.70;99.90
15789;DHT22;59075;50.670;6.474;2022-10-15T09:30:52;19.70;99.90
15789;DHT22;59075;50.670;6.474;2022-10-15T09:33:31;19.70;99.90
15789;DHT22;59075;50.670;6.474;2022-10-15T09:36:14;19.70;99.90
15789;DHT22;59075;50.670;6.474;2022-10-15T09:38:49;19.70;99.90
15789;DHT22;59075;50.670;6.474;2022-10-15T09:41:23;19.70;99.90
15789;DHT22;59075;50.670;6.474;2022-10-15T09:43:56;19.80;99.90
15789;DHT22;59075;50.670;6.474;2022-10-15T09:46:25;19.90;99.90
15789;DHT22;59075;50.670;6.474;2022-10-15T09:48:57;19.80;99.90
15789;DHT22;59075;50.670;6.474;2022-10-15T09:51:30;19.80;99.90
15789;DHT22;59075;50.670;6.474;2022-10-15T09:54:03;19.80;99.90
15789;DHT22;59075;50.670;6.474;2022-10-15T09:56:36;19.80;99.90
15789;DHT22;59075;50.670;6.474;2022-10-15T09:59:03;20.00;99.90
15789;DHT22;59075;50.670;6.474;2022-10-15T10:01:32;19.80;99.90
15789;DHT22;59075;50.670;6.474;2022-10-15T10:04:11;19.80;99.90
15789;DHT22;59075;50.670;6.474;2022-10-15T10:06:43;19.90;99.90
15789;DHT22;59075;50.670;6.474;2022-10-15T10:09:15;20.00;99.90
15789;DHT22;59075;50.670;6.474;2022-10-15T10:11:48;20.00;99.90
15789;DHT22;59075;50.670;6.474;2022-10-15T10:14:22;19.80;99.90
15789;DHT22;59075;50.670;6.474;2022-10-15T10:17:06;19.90;99.90
15789;DHT22;59075;50.670;6.474;2022-10-15T10:19:33;19.90;99.90
15789;DHT22;59075;50.670;6.474;2022-10-15T10:22:06;19.90;99.90
15789;DHT22;59075;50.670;6.474;2022-10-15T10:24:37;19.90;99.90
15789;DHT22;59075;50.670;6.474;2022-10-15T10:27:19;19.90;99.90
15789;DHT22;59075;50.670;6.474;2022-10-15T10:29:53;20.00;99.90
15789;DHT22;59075;50.670;6.474;2022-10-15T10:32:26;20.00;99.90
15789;DHT22;59075;50.670;6.474;2022-10-15T10:37:21;20.00;99.90
15789;DHT22;59075;50.670;6.474;2022-10-15T10:39:53;20.00;99.90
15789;DHT22;59075;50.670;6.474;2022-10-15T10:45:18;20.10;99.90
15789;DHT22;59075;50.670;6.474;2022-10-15T10:47:48;20.10;99.90
15789;DHT22;59075;50.670;6.474;2022-10-15T10:50:30;20.10;99.90
15789;DHT22;59075;50.670;6.474;2022-10-15T10:52:57;20.10;99.90
15789;DHT22;59075;50.670;6.474;2022-10-15T10:55:37;20.10;99.90
15789;DHT22;59075;50.670;6.474;2022-10-15T11:00:36;20.20;99.90
15789;DHT22;59075;50.670;6.474;2022-10-15T11:03:08;20.20;99.90
15789;DHT22;59075;50.670;6.474;2022-10-15T11:05:41;20.20;99.90
15789;DHT22;59075;50.670;6.474;2022-10-15T11:08:15;20.20;99.90
15789;DHT22;59075;50.670;6.474;2022-10-15T11:10:48;20.20;99.90
15789;DHT22;59075;50.670;6.474;2022-10-15T11:13:32;20.20;99.90
15789;DHT22;59075;50.670;6.474;2022-10-15T11:16:03;20.20;99.90
15789;DHT22;59075;50.670;6.474;2022-10-15T11:18:52;20.20;99.90
15789;DHT22;59075;50.670;6.474;2022-10-15T11:21:26;20.20;99.90
15789;DHT22;59075;50.670;6.474;2022-10-15T11:24:10;20.20;99.90
15789;DHT22;59075;50.670;6.474;2022-10-15T11:26:54;20.30;99.90
15789;DHT22;59075;50.670;6.474;2022-10-15T11:34:37;20.30;99.90
15789;DHT22;59075;50.670;6.474;2022-10-15T11:37:19;20.30;99.90
15789;DHT22;59075;50.670;6.474;2022-10-15T11:39:57;20.30;99.90
15789;DHT22;59075;50.670;6.474;2022-10-15T11:42:34;20.30;99.90
15789;DHT22;59075;50.670;6.474;2022-10-15T11:45:33;20.30;99.90
15789;DHT22;59075;50.670;6.474;2022-10-15T11:48:08;20.30;99.90
15789;DHT22;59075;50.670;6.474;2022-10-15T11:50:40;20.30;99.90
15789;DHT22;59075;50.670;6.474;2022-10-15T11:56:13;20.30;99.90
15789;DHT22;59075;50.670;6.474;2022-10-15T11:58:46;20.40;99.90
15789;DHT22;59075;50.670;6.474;2022-10-15T12:01:18;20.40;99.90
15789;DHT22;59075;50.670;6.474;2022-10-15T12:03:51;20.30;99.90
15789;DHT22;59075;50.670;6.474;2022-10-15T12:06:41;20.30;99.90
15789;DHT22;59075;50.670;6.474;2022-10-15T12:09:10;20.40;99.90
15789;DHT22;59075;50.670;6.474;2022-10-15T12:11:44;20.40;99.90
15789;DHT22;59075;50.670;6.474;2022-10-15T12:14:18;20.40;99.90
15789;DHT22;59075;50.670;6.474;2022-10-15T12:16:55;20.40;99.90
15789;DHT22;59075;50.670;6.474;2022-10-15T12:19:27;20.40;99.90
15789;DHT22;59075;50.670;6.474;2022-10-15T12:22:05;20.40;99.90
15789;DHT22;59075;50.670;6.474;2022-10-15T12:24:50;20.40;99.90
15789;DHT22;59075;50.670;6.474;2022-10-15T12:27:22;20.40;99.90
15789;DHT22;59075;50.670;6.474;2022-10-15T12:29:51;20.50;99.90
15789;DHT22;59075;50.670;6.474;2022-10-15T12:32:21;20.50;99.90
15789;DHT22;59075;50.670;6.474;2022-10-15T12:34:53;20.50;99.90
15789;DHT22;59075;50.670;6.474;2022-10-15T12:37:23;20.50;99.90
15789;DHT22;59075;50.670;6.474;2022-10-15T12:39:54;20.50;99.90
15789;DHT22;59075;50.670;6.474;2022-10-15T12:42:25;20.50;99.90
15789;DHT22;59075;50.670;6.474;2022-10-15T12:44:54;20.50;99.90
15789;DHT22;59075;50.670;6.474;2022-10-15T12:47:45;20.50;99.90
15789;DHT22;59075;50.670;6.474;2022-10-15T12:50:16;20.50;99.90
15789;DHT22;59075;50.670;6.474;2022-10-15T12:52:57;20.50;99.90
15789;DHT22;59075;50.670;6.474;2022-10-15T12:55:34;20.50;99.90
15789;DHT22;59075;50.670;6.474;2022-10-15T13:00:41;20.50;99.90
15789;DHT22;59075;50.670;6.474;2022-10-15T13:03:23;20.50;99.90
15789;DHT22;59075;50.670;6.474;2022-10-15T13:05:50;20.60;99.90
15789;DHT22;59075;50.670;6.474;2022-10-15T13:10:51;20.60;99.90
15789;DHT22;59075;50.670;6.474;2022-10-15T13:13:22;20.60;99.90
15789;DHT22;59075;50.670;6.474;2022-10-15T13:15:51;20.60;99.90
15789;DHT22;59075;50.670;6.474;2022-10-15T13:18:20;20.60;99.90
15789;DHT22;59075;50.670;6.474;2022-10-15T13:23:18;20.60;99.90
15789;DHT22;59075;50.670;6.474;2022-10-15T13:25:47;20.60;99.90
15789;DHT22;59075;50.670;6.474;2022-10-15T13:28:28;20.60;99.90
15789;DHT22;59075;50.670;6.474;2022-10-15T13:30:56;20.60;99.90
15789;DHT22;59075;50.670;6.474;2022-10-15T13:35:50;20.60;99.90
15789;DHT22;59075;50.670;6.474;2022-10-15T13:38:20;20.60;99.90
15789;DHT22;59075;50.670;6.474;2022-10-15T13:40:50;20.60;99.90
15789;DHT22;59075;50.670;6.474;2022-10-15T13:45:46;20.60;99.90
15789;DHT22;59075;50.670;6.474;2022-10-15T13:48:18;20.60;99.90
15789;DHT22;59075;50.670;6.474;2022-10-15T13:50:47;20.60;99.90
15789;DHT22;59075;50.670;6.474;2022-10-15T13:53:21;20.60;99.90
15789;DHT22;59075;50.670;6.474;2022-10-15T13:55:52;20.70;99.90
15789;DHT22;59075;50.670;6.474;2022-10-15T13:58:21;20.70;99.90
15789;DHT22;59075;50.670;6.474;2022-10-15T14:00:50;20.70;99.90
15789;DHT22;59075;50.670;6.474;2022-10-15T14:05:48;20.70;99.90
15789;DHT22;59075;50.670;6.474;2022-10-15T14:10:48;20.70;99.90
15789;DHT22;59075;50.670;6.474;2022-10-15T14:13:16;20.70;99.90
15789;DHT22;59075;50.670;6.474;2022-10-15T14:15:47;20.70;99.90
15789;DHT22;59075;50.670;6.474;2022-10-15T14:18:17;20.70;99.90
15789;DHT22;59075;50.670;6.474;2022-10-15T14:25:52;20.80;99.90
15789;DHT22;59075;50.670;6.474;2022-10-15T14:28:22;20.70;99.90
15789;DHT22;59075;50.670;6.474;2022-10-15T14:33:41;20.80;99.90
15789;DHT22;59075;50.670;6.474;2022-10-15T14:36:12;20.70;99.90
15789;DHT22;59075;50.670;6.474;2022-10-15T14:38:39;20.70;99.90
15789;DHT22;59075;50.670;6.474;2022-10-15T14:41:27;20.70;99.90
15789;DHT22;59075;50.670;6.474;2022-10-15T14:44:05;20.70;99.90
15789;DHT22;59075;50.670;6.474;2022-10-15T14:46:38;20.70;99.90
15789;DHT22;59075;50.670;6.474;2022-10-15T14:49:24;20.70;99.90
15789;DHT22;59075;50.670;6.474;2022-10-15T14:51:58;20.70;99.90
15789;DHT22;59075;50.670;6.474;2022-10-15T14:54:34;20.70;99.90
15789;DHT22;59075;50.670;6.474;2022-10-15T14:57:01;20.70;99.90
15789;DHT22;59075;50.670;6.474;2022-10-15T14:59:33;20.70;99.90
15789;DHT22;59075;50.670;6.474;2022-10-15T15:02:03;20.70;99.90
15789;DHT22;59075;50.670;6.474;2022-10-15T15:04:32;20.70;99.90
15789;DHT22;59075;50.670;6.474;2022-10-15T15:06:59;20.60;99.90
15789;DHT22;59075;50.670;6.474;2022-10-15T15:09:26;20.70;99.90
15789;DHT22;59075;50.670;6.474;2022-10-15T15:11:53;20.60;99.90
15789;DHT22;59075;50.670;6.474;2022-10-15T15:14:22;20.60;99.90
15789;DHT22;59075;50.670;6.474;2022-10-15T15:16:51;20.60;99.90
15789;DHT22;59075;50.670;6.474;2022-10-15T15:19:18;20.60;99.90
15789;DHT22;59075;50.670;6.474;2022-10-15T15:24:12;20.60;99.90
15789;DHT22;59075;50.670;6.474;2022-10-15T15:26:39;20.60;99.90
15789;DHT22;59075;50.670;6.474;2022-10-15T15:29:11;20.60;99.90
15789;DHT22;59075;50.670;6.474;2022-10-15T15:34:08;20.60;99.90
15789;DHT22;59075;50.670;6.474;2022-10-15T15:36:34;20.60;99.90
15789;DHT22;59075;50.670;6.474;2022-10-15T15:41:37;20.50;99.90
15789;DHT22;59075;50.670;6.474;2022-10-15T15:46:31;20.60;99.90
15789;DHT22;59075;50.670;6.474;2022-10-15T15:48:58;20.60;99.90
15789;DHT22;59075;50.670;6.474;2022-10-15T15:51:28;20.50;99.90
15789;DHT22;59075;50.670;6.474;2022-10-15T15:53:57;20.50;99.90
15789;DHT22;59075;50.670;6.474;2022-10-15T15:56:26;20.50;99.90
15789;DHT22;59075;50.670;6.474;2022-10-15T15:58:53;20.50;99.90
15789;DHT22;59075;50.670;6.474;2022-10-15T16:01:19;20.50;99.90
15789;DHT22;59075;50.670;6.474;2022-10-15T16:03:46;20.50;99.90
15789;DHT22;59075;50.670;6.474;2022-10-15T16:06:13;20.50;99.90
15789;DHT22;59075;50.670;6.474;2022-10-15T16:08:41;20.50;99.90
15789;DHT22;59075;50.670;6.474;2022-10-15T16:11:08;20.50;99.90
15789;DHT22;59075;50.670;6.474;2022-10-15T16:13:34;20.50;99.90
15789;DHT22;59075;50.670;6.474;2022-10-15T16:20:56;20.50;99.90
15789;DHT22;59075;50.670;6.474;2022-10-15T16:23:23;20.50;99.90
15789;DHT22;59075;50.670;6.474;2022-10-15T16:25:51;20.50;99.90
15789;DHT22;59075;50.670;6.474;2022-10-15T16:28:18;20.50;99.90
15789;DHT22;59075;50.670;6.474;2022-10-15T16:30:45;20.50;99.90
15789;DHT22;59075;50.670;6.474;2022-10-15T16:33:12;20.50;99.90
15789;DHT22;59075;50.670;6.474;2022-10-15T16:35:39;20.50;99.90
15789;DHT22;59075;50.670;6.474;2022-10-15T16:38:06;20.50;99.90
15789;DHT22;59075;50.670;6.474;2022-10-15T16:43:02;20.50;99.90
15789;DHT22;59075;50.670;6.474;2022-10-15T16:47:55;20.40;99.90
15789;DHT22;59075;50.670;6.474;2022-10-15T16:52:49;20.50;99.90
15789;DHT22;59075;50.670;6.474;2022-10-15T16:55:16;20.50;99.90
15789;DHT22;59075;50.670;6.474;2022-10-15T16:57:43;20.50;99.90
15789;DHT22;59075;50.670;6.474;2022-10-15T17:00:30;20.50;99.90
15789;DHT22;59075;50.670;6.474;2022-10-15T17:02:56;20.50;99.90
15789;DHT22;59075;50.670;6.474;2022-10-15T17:05:26;20.50;99.90
15789;DHT22;59075;50.670;6.474;2022-10-15T17:07:53;20.40;99.90
15789;DHT22;59075;50.670;6.474;2022-10-15T17:10:19;20.50;99.90
15789;DHT22;59075;50.670;6.474;2022-10-15T17:12:50;20.50;99.90
15789;DHT22;59075;50.670;6.474;2022-10-15T17:15:16;20.50;99.90
15789;DHT22;59075;50.670;6.474;2022-10-15T17:17:45;20.50;99.90
15789;DHT22;59075;50.670;6.474;2022-10-15T17:20:11;20.50;99.90
15789;DHT22;59075;50.670;6.474;2022-10-15T17:22:38;20.40;99.90
15789;DHT22;59075;50.670;6.474;2022-10-15T17:25:05;20.40;99.90
15789;DHT22;59075;50.670;6.474;2022-10-15T17:30:00;20.50;99.90
15789;DHT22;59075;50.670;6.474;2022-10-15T17:32:26;20.40;99.90
15789;DHT22;59075;50.670;6.474;2022-10-15T17:34:54;20.40;99.90
15789;DHT22;59075;50.670;6.474;2022-10-15T17:37:21;20.40;99.90
15789;DHT22;59075;50.670;6.474;2022-10-15T17:39:48;20.40;99.90
15789;DHT22;59075;50.670;6.474;2022-10-15T17:42:16;20.40;99.90
15789;DHT22;59075;50.670;6.474;2022-10-15T17:44:43;20.40;99.90
15789;DHT22;59075;50.670;6.474;2022-10-15T17:49:37;20.40;99.90
15789;DHT22;59075;50.670;6.474;2022-10-15T17:52:07;20.40;99.90
15789;DHT22;59075;50.670;6.474;2022-10-15T17:54:34;20.40;99.90
15789;DHT22;59075;50.670;6.474;2022-10-15T17:57:01;20.40;99.90
15789;DHT22;59075;50.670;6.474;2022-10-15T17:59:28;20.40;99.90
15789;DHT22;59075;50.670;6.474;2022-10-15T18:01:54;20.40;99.90
15789;DHT22;59075;50.670;6.474;2022-10-15T18:04:22;20.40;99.90
15789;DHT22;59075;50.670;6.474;2022-10-15T18:06:49;20.40;99.90
15789;DHT22;59075;50.670;6.474;2022-10-15T18:09:17;20.40;99.90
15789;DHT22;59075;50.670;6.474;2022-10-15T18:11:44;20.40;99.90
15789;DHT22;59075;50.670;6.474;2022-10-15T18:16:37;20.40;99.90
15789;DHT22;59075;50.670;6.474;2022-10-15T18:19:04;20.40;99.90
15789;DHT22;59075;50.670;6.474;2022-10-15T18:23:58;20.40;99.90
15789;DHT22;59075;50.670;6.474;2022-10-15T18:26:27;20.40;99.90
15789;DHT22;59075;50.670;6.474;2022-10-15T18:28:53;20.30;99.90
15789;DHT22;59075;50.670;6.474;2022-10-15T18:31:21;20.30;99.90
15789;DHT22;59075;50.670;6.474;2022-10-15T18:33:51;20.30;99.90
15789;DHT22;59075;50.670;6.474;2022-10-15T18:36:20;20.30;99.90
15789;DHT22;59075;50.670;6.474;2022-10-15T18:38:47;20.40;99.90
15789;DHT22;59075;50.670;6.474;2022-10-15T18:41:15;20.40;99.90
15789;DHT22;59075;50.670;6.474;2022-10-15T18:43:48;20.30;99.90
15789;DHT22;59075;50.670;6.474;2022-10-15T18:46:15;20.40;99.90
15789;DHT22;59075;50.670;6.474;2022-10-15T18:51:09;20.30;99.90
15789;DHT22;59075;50.670;6.474;2022-10-15T18:53:37;20.30;99.90
15789;DHT22;59075;50.670;6.474;2022-10-15T18:56:05;20.30;99.90
15789;DHT22;59075;50.670;6.474;2022-10-15T18:58:32;20.30;99.90
15789;DHT22;59075;50.670;6.474;2022-10-15T19:01:10;20.30;99.90
15789;DHT22;59075;50.670;6.474;2022-10-15T19:03:36;20.20;99.90
15789;DHT22;59075;50.670;6.474;2022-10-15T19:06:03;20.30;99.90
15789;DHT22;59075;50.670;6.474;2022-10-15T19:08:30;20.30;99.90
15789;DHT22;59075;50.670;6.474;2022-10-15T19:16:02;20.30;99.90
15789;DHT22;59075;50.670;6.474;2022-10-15T19:18:31;20.30;99.90
15789;DHT22;59075;50.670;6.474;2022-10-15T19:20:58;20.30;99.90
15789;DHT22;59075;50.670;6.474;2022-10-15T19:23:25;20.30;99.90
15789;DHT22;59075;50.670;6.474;2022-10-15T19:25:52;20.30;99.90
15789;DHT22;59075;50.670;6.474;2022-10-15T19:28:19;20.30;99.90
15789;DHT22;59075;50.670;6.474;2022-10-15T19:30:53;20.30;99.90
15789;DHT22;59075;50.670;6.474;2022-10-15T19:33:20;20.30;99.90
15789;DHT22;59075;50.670;6.474;2022-10-15T19:35:48;20.30;99.90
15789;DHT22;59075;50.670;6.474;2022-10-15T19:43:10;20.30;99.90
15789;DHT22;59075;50.670;6.474;2022-10-15T19:45:37;20.20;99.90
15789;DHT22;59075;50.670;6.474;2022-10-15T19:48:05;20.20;99.90
15789;DHT22;59075;50.670;6.474;2022-10-15T19:50:35;20.30;99.90
15789;DHT22;59075;50.670;6.474;2022-10-15T19:53:04;20.30;99.90
15789;DHT22;59075;50.670;6.474;2022-10-15T19:55:31;20.20;99.90
15789;DHT22;59075;50.670;6.474;2022-10-15T19:57:58;20.20;99.90
15789;DHT22;59075;50.670;6.474;2022-10-15T20:00:24;20.20;99.90
15789;DHT22;59075;50.670;6.474;2022-10-15T20:02:51;20.20;99.90
15789;DHT22;59075;50.670;6.474;2022-10-15T20:05:18;20.20;99.90
15789;DHT22;59075;50.670;6.474;2022-10-15T20:07:45;20.20;99.90
15789;DHT22;59075;50.670;6.474;2022-10-15T20:10:13;20.20;99.90
15789;DHT22;59075;50.670;6.474;2022-10-15T20:12:40;20.20;99.90
15789;DHT22;59075;50.670;6.474;2022-10-15T20:15:07;20.20;99.90
15789;DHT22;59075;50.670;6.474;2022-10-15T20:17:34;20.20;99.90
15789;DHT22;59075;50.670;6.474;2022-10-15T20:20:01;20.20;99.90
15789;DHT22;59075;50.670;6.474;2022-10-15T20:22:28;20.20;99.90
15789;DHT22;59075;50.670;6.474;2022-10-15T20:24:55;20.20;99.90
15789;DHT22;59075;50.670;6.474;2022-10-15T20:29:50;20.20;99.90
15789;DHT22;59075;50.670;6.474;2022-10-15T20:34:46;20.20;99.90
15789;DHT22;59075;50.670;6.474;2022-10-15T20:37:12;20.20;99.90
15789;DHT22;59075;50.670;6.474;2022-10-15T20:39:42;20.20;99.90
15789;DHT22;59075;50.670;6.474;2022-10-15T20:44:37;20.10;99.90
15789;DHT22;59075;50.670;6.474;2022-10-15T20:47:06;20.20;99.90
15789;DHT22;59075;50.670;6.474;2022-10-15T20:52:05;20.20;99.90
15789;DHT22;59075;50.670;6.474;2022-10-15T20:54:32;20.10;99.90
15789;DHT22;59075;50.670;6.474;2022-10-15T20:56:59;20.10;99.90
15789;DHT22;59075;50.670;6.474;2022-10-15T20:59:26;20.20;99.90
